Time;durP1;ratioP1;P1;durP2;ratioP2;P2;SDS_P1;SDS_P2;PMS_P1;PMS_P2;Temp;Humidity;BMP_temperature;BMP_pressure;BME280_temperature;BME280_humidity;BME280_pressure;Samples;Min_cycle;Max_cycle;Signal;HPM_P1;HPM_P2
2023/07/22 00:00:25;;;;;;;3.45;1.85;;;;;;;13.19;100.00;95877.69;1025491;28;20019;-70
2023/07/22 00:00:56;;;;;;;2.67;2.08;;;;;;;13.14;100.00;95861.13;1022377;29;20054;-70
2023/07/22 00:01:26;;;;;;;3.72;2.10;;;;;;;13.16;100.00;95870.31;1022336;29;20591;-71
2023/07/22 00:01:57;;;;;;;2.30;2.08;;;;;;;13.13;100.00;95870.09;1014618;29;20529;-71
2023/07/22 00:02:27;;;;;;;3.03;1.92;;;;;;;13.13;100.00;95878.00;1018570;29;20031;-73
2023/07/22 00:02:58;;;;;;;3.72;1.88;;;;;;;13.14;100.00;95882.19;1022615;28;20035;-71
2023/07/22 00:03:28;;;;;;;2.95;2.03;;;;;;;13.11;100.00;95874.84;1022448;28;20019;-71
2023/07/22 00:03:59;;;;;;;7.65;2.08;;;;;;;13.13;100.00;95878.78;1030589;28;20107;-71
2023/07/22 00:04:29;;;;;;;2.20;1.88;;;;;;;13.13;100.00;95878.00;1026377;28;20112;-70
2023/07/22 00:05:00;;;;;;;1.63;1.52;;;;;;;13.15;100.00;95878.50;1022703;28;20118;-70
2023/07/22 00:05:30;;;;;;;8.73;2.72;;;;;;;13.09;100.00;95864.59;1018460;29;20012;-70
2023/07/22 00:06:05;;;;;;;4.50;1.98;;;;;;;13.10;100.00;95868.78;1014466;29;20025;-71
2023/07/22 00:06:36;;;;;;;4.25;2.38;;;;;;;13.06;100.00;95864.34;1014730;29;20769;-68
2023/07/22 00:07:06;;;;;;;7.93;2.03;;;;;;;13.04;100.00;95869.88;1018642;29;20027;-71
2023/07/22 00:07:37;;;;;;;6.38;2.33;;;;;;;13.10;100.00;95873.28;1018715;29;20490;-71
2023/07/22 00:08:07;;;;;;;2.17;1.90;;;;;;;13.09;100.00;95872.50;1018782;28;20032;-70
2023/07/22 00:08:38;;;;;;;5.75;3.03;;;;;;;13.03;100.00;95868.31;1016184;29;20024;-70
2023/07/22 00:09:09;;;;;;;4.53;2.10;;;;;;;13.05;100.00;95878.59;1014529;28;20026;-70
2023/07/22 00:09:41;;;;;;;3.17;2.17;;;;;;;13.05;100.00;95878.59;1014596;29;20035;-71
2023/07/22 00:10:12;;;;;;;4.35;2.22;;;;;;;13.02;100.00;95876.50;1018557;29;20131;-71
2023/07/22 00:10:42;;;;;;;2.88;1.92;;;;;;;12.98;100.00;95874.41;1021554;28;20651;-72
2023/07/22 00:11:13;;;;;;;5.18;1.90;;;;;;;12.97;100.00;95872.81;1022435;28;20026;-73
2023/07/22 00:11:43;;;;;;;5.03;2.00;;;;;;;12.86;100.00;95860.78;1022491;29;20508;-71
2023/07/22 00:12:14;;;;;;;4.07;1.90;;;;;;;12.94;100.00;95870.75;1018821;29;20031;-73
2023/07/22 00:12:45;;;;;;;3.00;2.10;;;;;;;12.90;100.00;95869.72;1018420;28;20023;-72
2023/07/22 00:13:16;;;;;;;4.65;2.08;;;;;;;12.97;100.00;95875.44;1018602;29;20035;-71
2023/07/22 00:13:46;;;;;;;4.20;2.10;;;;;;;12.93;100.00;95874.44;1018628;29;20016;-70
2023/07/22 00:14:16;;;;;;;5.95;2.13;;;;;;;12.89;100.00;95870.78;1014977;29;20071;-72
2023/07/22 00:14:47;;;;;;;5.72;2.08;;;;;;;12.97;100.00;95880.72;1019331;28;20027;-73
2023/07/22 00:15:17;;;;;;;5.00;1.92;;;;;;;12.93;100.00;95866.53;1022509;29;20030;-73
2023/07/22 00:15:48;;;;;;;3.08;2.08;;;;;;;12.98;100.00;95873.63;1014531;29;20024;-70
2023/07/22 00:16:18;;;;;;;4.43;2.22;;;;;;;12.98;100.00;95869.16;1018350;29;20414;-71
2023/07/22 00:16:49;;;;;;;4.15;2.20;;;;;;;13.03;100.00;95884.13;1018478;28;20109;-72
2023/07/22 00:17:20;;;;;;;3.10;1.92;;;;;;;12.95;100.00;95869.69;1018522;29;20015;-70
2023/07/22 00:17:51;;;;;;;2.63;2.05;;;;;;;12.94;100.00;95868.13;1022016;28;20019;-70
2023/07/22 00:18:22;;;;;;;3.65;2.20;;;;;;;13.02;100.00;95871.22;1018928;28;20045;-73
2023/07/22 00:18:53;;;;;;;5.93;1.95;;;;;;;12.95;100.00;95867.06;1021283;29;20680;-72
2023/07/22 00:19:23;;;;;;;3.63;2.38;;;;;;;13.05;100.00;95878.59;1022725;28;20408;-70
2023/07/22 00:19:54;;;;;;;5.53;2.38;;;;;;;13.03;100.00;95878.06;1026703;28;20034;-71
2023/07/22 00:20:25;;;;;;;11.52;3.13;;;;;;;13.02;100.00;95874.66;1029950;28;20038;-71
2023/07/22 00:20:55;;;;;;;5.93;2.85;;;;;;;13.02;100.00;95879.91;1026326;28;20038;-70
2023/07/22 00:21:26;;;;;;;3.92;1.60;;;;;;;13.03;100.00;95880.69;1022501;28;20038;-71
2023/07/22 00:21:56;;;;;;;6.93;2.28;;;;;;;13.04;100.00;95884.91;1026427;28;20109;-70
2023/07/22 00:22:27;;;;;;;3.05;2.20;;;;;;;12.99;100.00;95875.19;1026505;28;20048;-72
2023/07/22 00:22:57;;;;;;;4.13;2.20;;;;;;;13.03;100.00;95880.69;1022434;28;20039;-69
2023/07/22 00:23:28;;;;;;;5.05;2.20;;;;;;;13.01;100.00;95877.53;1030419;28;20466;-70
2023/07/22 00:23:59;;;;;;;3.08;2.03;;;;;;;13.01;100.00;95878.34;1030518;28;20034;-70
2023/07/22 00:24:29;;;;;;;2.60;1.90;;;;;;;13.02;100.00;95881.78;1022474;28;20496;-71
2023/07/22 00:25:00;;;;;;;7.20;2.50;;;;;;;13.03;100.00;95875.44;1022261;28;20027;-70
2023/07/22 00:25:30;;;;;;;11.98;3.00;;;;;;;12.92;100.00;95869.44;1018399;29;20040;-70
2023/07/22 00:26:00;;;;;;;10.40;2.78;;;;;;;12.94;100.00;95873.41;1014489;29;20055;-70
2023/07/22 00:26:31;;;;;;;4.78;2.67;;;;;;;12.96;100.00;95876.53;1018571;29;20036;-72
2023/07/22 00:27:01;;;;;;;7.03;2.50;;;;;;;12.98;100.00;95878.91;1018579;29;20031;-72
2023/07/22 00:27:32;;;;;;;6.72;2.25;;;;;;;12.96;100.00;95871.25;1022474;29;20643;-72
2023/07/22 00:28:04;;;;;;;4.82;2.53;;;;;;;12.96;100.00;95881.00;1022564;28;20023;-69
2023/07/22 00:28:34;;;;;;;5.88;2.53;;;;;;;12.95;100.00;95880.22;1030457;28;20030;-70
2023/07/22 00:29:04;;;;;;;8.25;2.15;;;;;;;12.93;100.00;95882.34;1026828;28;20030;-71
2023/07/22 00:29:35;;;;;;;4.72;2.28;;;;;;;12.91;100.00;95881.03;1032582;28;20037;-71
2023/07/22 00:30:06;;;;;;;4.78;2.35;;;;;;;12.83;100.00;95871.09;1030376;28;20031;-71
2023/07/22 00:30:37;;;;;;;3.10;2.22;;;;;;;12.83;100.00;95871.09;1017329;29;20114;-71
2023/07/22 00:31:08;;;;;;;4.82;2.20;;;;;;;12.87;100.00;95878.16;1016476;29;20115;-72
2023/07/22 00:31:38;;;;;;;4.78;2.80;;;;;;;12.87;100.00;95877.38;1017856;29;20094;-72
2023/07/22 00:32:09;;;;;;;4.38;2.03;;;;;;;12.83;100.00;95877.13;1018341;29;20039;-72
2023/07/22 00:32:40;;;;;;;4.60;2.47;;;;;;;12.86;100.00;95881.06;1012726;29;20040;-70
2023/07/22 00:33:12;;;;;;;4.18;2.45;;;;;;;12.83;100.00;95877.13;1022454;28;20030;-72
2023/07/22 00:33:45;;;;;;;3.28;2.30;;;;;;;12.85;100.00;95880.28;1022375;29;20043;-70
2023/07/22 00:34:16;;;;;;;3.58;2.45;;;;;;;12.86;100.00;95881.84;1015916;29;20548;-70
2023/07/22 00:34:46;;;;;;;3.33;2.60;;;;;;;12.84;100.00;95878.69;1018353;29;20063;-71
2023/07/22 00:35:17;;;;;;;3.78;2.58;;;;;;;12.85;100.00;95882.16;1019077;29;20031;-70
2023/07/22 00:35:50;;;;;;;5.80;2.60;;;;;;;12.71;100.00;95858.28;1022631;28;20058;-69
2023/07/22 00:36:20;;;;;;;13.18;3.22;;;;;;;12.84;100.00;95878.69;1018773;29;20027;-70
2023/07/22 00:36:51;;;;;;;10.82;3.42;;;;;;;12.83;100.00;95877.13;1022826;28;20035;-71
2023/07/22 00:37:21;;;;;;;5.07;2.33;;;;;;;12.76;100.00;95866.13;1022489;29;20102;-69
2023/07/22 00:37:52;;;;;;;8.05;2.70;;;;;;;12.85;100.00;95880.28;1018466;28;20105;-69
2023/07/22 00:38:22;;;;;;;7.80;2.85;;;;;;;12.82;100.00;95870.31;1026413;28;20085;-70
2023/07/22 00:38:53;;;;;;;6.93;2.72;;;;;;;12.88;100.00;95877.13;1018540;29;20040;-72
2023/07/22 00:39:23;;;;;;;4.10;2.92;;;;;;;12.90;100.00;95871.56;1022498;28;20027;-73
2023/07/22 00:39:54;;;;;;;4.43;2.65;;;;;;;12.91;100.00;95879.22;1021980;29;20650;-70
2023/07/22 00:40:25;;;;;;;5.78;2.70;;;;;;;12.90;100.00;95876.81;1022190;28;20023;-72
2023/07/22 00:40:56;;;;;;;5.25;2.58;;;;;;;12.88;100.00;95873.69;1018377;29;20322;-69
2023/07/22 00:41:26;;;;;;;4.20;2.80;;;;;;;12.88;100.00;95879.75;1014750;29;20645;-72
2023/07/22 00:41:56;;;;;;;3.80;2.63;;;;;;;12.85;100.00;95875.03;1018305;29;20536;-71
2023/07/22 00:42:27;;;;;;;5.20;3.20;;;;;;;12.90;100.00;95877.59;1018665;28;20072;-70
2023/07/22 00:42:58;;;;;;;8.18;2.83;;;;;;;12.90;100.00;95882.09;1026431;28;20031;-70
2023/07/22 00:43:29;;;;;;;5.55;2.70;;;;;;;12.82;100.00;95864.25;1026430;28;20038;-70
2023/07/22 00:43:59;;;;;;;5.90;3.00;;;;;;;12.88;100.00;95881.59;1022129;29;20039;-72
2023/07/22 00:44:30;;;;;;;6.65;2.92;;;;;;;12.81;100.00;95868.75;1018599;29;20032;-71
2023/07/22 00:45:00;;;;;;;9.98;3.20;;;;;;;12.86;100.00;95875.81;1022031;29;20106;-72
2023/07/22 00:45:31;;;;;;;4.75;2.75;;;;;;;12.86;100.00;95876.59;1022534;28;20019;-72
2023/07/22 00:46:01;;;;;;;6.18;3.10;;;;;;;12.86;100.00;95873.19;1022505;29;20031;-70
2023/07/22 00:46:32;;;;;;;10.10;3.22;;;;;;;12.87;100.00;95878.16;1022175;28;20042;-70
2023/07/22 00:47:02;;;;;;;5.43;3.15;;;;;;;12.85;100.00;95868.97;1022488;28;20771;-71
2023/07/22 00:47:36;;;;;;;3.38;2.72;;;;;;;12.83;100.00;95877.13;1022452;29;20028;-70
2023/07/22 00:48:07;;;;;;;5.65;3.15;;;;;;;12.73;100.00;95856.91;1014491;29;20031;-72
2023/07/22 00:48:38;;;;;;;6.28;2.83;;;;;;;12.83;100.00;95877.13;1014882;29;20051;-72
2023/07/22 00:49:08;;;;;;;4.57;3.10;;;;;;;12.84;100.00;95878.69;1014497;29;20035;-71
2023/07/22 00:49:39;;;;;;;4.97;3.70;;;;;;;12.83;100.00;95876.34;1014454;29;20228;-72
2023/07/22 00:50:09;;;;;;;6.03;3.47;;;;;;;12.77;100.00;95870.31;1018042;29;20099;-70
2023/07/22 00:50:39;;;;;;;4.43;3.55;;;;;;;12.77;100.00;95870.31;1017616;28;20540;-73
2023/07/22 00:51:10;;;;;;;10.65;4.32;;;;;;;12.80;100.00;95872.41;1018259;29;20066;-71
2023/07/22 00:51:40;;;;;;;9.93;3.05;;;;;;;12.83;100.00;95873.72;1022158;29;20031;-73
2023/07/22 00:52:11;;;;;;;11.10;3.85;;;;;;;12.80;100.00;95877.69;1022234;28;20035;-72
2023/07/22 00:52:41;;;;;;;6.10;3.58;;;;;;;12.83;100.00;95871.88;1026146;28;20781;-72
2023/07/22 00:53:12;;;;;;;12.48;3.83;;;;;;;12.83;100.00;95876.34;1022253;29;20027;-71
2023/07/22 00:53:42;;;;;;;4.85;3.20;;;;;;;12.82;100.00;95875.56;1020224;29;20032;-70
2023/07/22 00:54:12;;;;;;;6.68;3.53;;;;;;;12.86;100.00;95871.31;1022246;29;20031;-70
2023/07/22 00:54:43;;;;;;;5.50;3.38;;;;;;;12.84;100.00;95877.91;1022293;28;20090;-71
2023/07/22 00:55:14;;;;;;;9.80;3.60;;;;;;;12.83;100.00;95866.59;1018207;29;20027;-71
2023/07/22 00:55:44;;;;;;;5.65;3.22;;;;;;;12.77;100.00;95857.16;1021647;28;20042;-71
2023/07/22 00:56:15;;;;;;;6.45;3.35;;;;;;;12.82;100.00;95862.41;1022291;29;20035;-70
2023/07/22 00:56:45;;;;;;;5.93;3.60;;;;;;;12.79;100.00;95865.56;1018060;29;20036;-71
2023/07/22 00:57:15;;;;;;;9.30;3.83;;;;;;;12.81;100.00;95868.75;1018871;28;20028;-71
2023/07/22 00:57:47;;;;;;;10.80;4.60;;;;;;;12.83;100.00;95866.59;1022460;28;20027;-71
2023/07/22 00:58:17;;;;;;;9.07;3.97;;;;;;;12.77;100.00;95857.16;1022345;29;20023;-72
2023/07/22 00:58:48;;;;;;;4.70;3.40;;;;;;;12.81;100.00;95863.47;1018256;29;20032;-70
2023/07/22 00:59:18;;;;;;;5.25;3.55;;;;;;;12.79;100.00;95865.56;1016648;29;20035;-73
2023/07/22 00:59:49;;;;;;;6.22;3.72;;;;;;;12.81;100.00;95868.75;1018100;29;20622;-72
2023/07/22 01:00:19;;;;;;;9.90;3.65;;;;;;;12.81;100.00;95871.38;1017869;29;20042;-71
2023/07/22 01:00:50;;;;;;;5.38;3.80;;;;;;;12.80;100.00;95864.50;1018087;29;20035;-71
2023/07/22 01:01:20;;;;;;;8.32;3.88;;;;;;;12.82;100.00;95870.31;1018206;29;20152;-70
2023/07/22 01:01:51;;;;;;;7.47;3.80;;;;;;;12.77;100.00;95862.41;1022845;28;20035;-71
2023/07/22 01:02:21;;;;;;;4.82;3.50;;;;;;;12.76;100.00;95865.34;1027280;28;20473;-72
2023/07/22 01:02:52;;;;;;;9.77;3.97;;;;;;;12.81;100.00;95870.56;1031118;28;20026;-72
2023/07/22 01:03:22;;;;;;;7.55;3.83;;;;;;;12.78;100.00;95860.59;1023131;29;20107;-72
2023/07/22 01:03:53;;;;;;;7.03;3.50;;;;;;;12.76;100.00;95855.59;1015278;29;20378;-70
2023/07/22 01:04:23;;;;;;;4.65;3.67;;;;;;;12.80;100.00;95855.81;1019373;29;20032;-72
2023/07/22 01:04:54;;;;;;;11.70;3.78;;;;;;;12.80;100.00;95863.72;1020716;29;20028;-72
2023/07/22 01:05:25;;;;;;;6.68;4.15;;;;;;;12.74;100.00;95847.16;1023252;29;20043;-72
2023/07/22 01:05:56;;;;;;;10.23;3.80;;;;;;;12.78;100.00;95847.44;1019384;29;20019;-72
2023/07/22 01:06:29;;;;;;;6.05;3.75;;;;;;;12.84;100.00;95859.47;1019326;29;20114;-72
2023/07/22 01:07:00;;;;;;;6.93;4.22;;;;;;;12.81;100.00;95858.19;1019107;28;20035;-69
2023/07/22 01:07:30;;;;;;;7.65;4.22;;;;;;;12.81;100.00;95857.38;1015460;29;20028;-72
2023/07/22 01:08:01;;;;;;;6.03;3.60;;;;;;;12.82;100.00;95864.25;1019385;29;20059;-72
2023/07/22 01:08:32;;;;;;;7.03;3.83;;;;;;;12.82;100.00;95861.63;1016862;29;20062;-72
2023/07/22 01:09:03;;;;;;;13.77;4.90;;;;;;;12.81;100.00;95860.84;1023209;28;20027;-72
2023/07/22 01:09:40;;;;;;;8.68;4.32;;;;;;;12.80;100.00;95864.50;1022999;28;20038;-71
2023/07/22 01:10:12;;;;;;;5.32;4.05;;;;;;;12.74;100.00;95849.78;1020308;29;20020;-70
2023/07/22 01:10:43;;;;;;;9.73;3.80;;;;;;;12.86;100.00;95860.78;1014555;29;20040;-71
2023/07/22 01:11:13;;;;;;;7.15;3.50;;;;;;;12.85;100.00;95859.22;1013779;29;20041;-73
2023/07/22 01:11:44;;;;;;;9.13;4.07;;;;;;;12.87;100.00;95851.81;1019472;29;20619;-71
2023/07/22 01:12:15;;;;;;;6.80;3.90;;;;;;;12.81;100.00;95854.75;1019456;29;20509;-71
2023/07/22 01:12:45;;;;;;;5.35;3.53;;;;;;;12.72;100.00;95839.56;1018782;29;20043;-70
2023/07/22 01:13:15;;;;;;;7.13;3.72;;;;;;;12.85;100.00;95861.84;1023061;28;20094;-72
2023/07/22 01:13:46;;;;;;;6.82;3.60;;;;;;;12.86;100.00;95860.78;1023333;29;20034;-72
2023/07/22 01:14:16;;;;;;;8.00;3.63;;;;;;;12.84;100.00;95859.47;1023294;28;20448;-71
2023/07/22 01:14:47;;;;;;;9.65;3.78;;;;;;;12.83;100.00;95860.56;1031312;28;20053;-71
2023/07/22 01:15:18;;;;;;;8.50;3.50;;;;;;;12.73;100.00;95851.66;1026652;28;20034;-71
2023/07/22 01:15:48;;;;;;;7.13;3.60;;;;;;;12.80;100.00;95861.09;1018696;29;20043;-70
2023/07/22 01:16:19;;;;;;;6.85;4.40;;;;;;;12.80;100.00;95867.13;1014955;29;20028;-70
2023/07/22 01:16:49;;;;;;;6.68;3.90;;;;;;;12.79;100.00;95860.31;1014358;29;20040;-70
2023/07/22 01:17:20;;;;;;;5.00;3.80;;;;;;;12.78;100.00;95858.75;1020516;29;20027;-70
2023/07/22 01:17:50;;;;;;;7.22;4.35;;;;;;;12.79;100.00;95868.22;1019160;29;20035;-71
2023/07/22 01:18:21;;;;;;;6.60;3.88;;;;;;;12.77;100.00;95861.63;1021158;29;20035;-71
2023/07/22 01:18:52;;;;;;;5.35;3.38;;;;;;;12.72;100.00;95855.34;1021521;29;20035;-73
2023/07/22 01:19:23;;;;;;;9.02;5.75;;;;;;;12.76;100.00;95860.84;1019012;29;20409;-70
2023/07/22 01:19:53;;;;;;;7.15;3.90;;;;;;;12.73;100.00;95851.66;1027011;28;20031;-70
2023/07/22 01:20:24;;;;;;;5.07;3.78;;;;;;;12.75;100.00;95861.91;1018646;29;20540;-70
2023/07/22 01:20:54;;;;;;;8.25;4.35;;;;;;;12.79;100.00;95865.56;1019116;29;20074;-71
2023/07/22 01:21:25;;;;;;;9.85;4.22;;;;;;;12.80;100.00;95859.25;1019140;29;20036;-70
2023/07/22 01:22:00;;;;;;;5.85;4.10;;;;;;;12.77;100.00;95859.00;1015530;28;20031;-71
2023/07/22 01:22:31;;;;;;;8.38;3.60;;;;;;;12.74;100.00;95852.44;1024526;28;20587;-71
2023/07/22 01:23:01;;;;;;;7.53;4.20;;;;;;;12.62;100.00;95833.56;1023281;29;20497;-72
2023/07/22 01:23:32;;;;;;;7.55;4.47;;;;;;;12.77;100.00;95867.69;1019127;29;20038;-71
2023/07/22 01:24:03;;;;;;;8.45;3.95;;;;;;;12.78;100.00;95856.13;1019227;29;20032;-70
2023/07/22 01:24:33;;;;;;;6.70;3.95;;;;;;;12.70;100.00;95835.59;1023404;28;20093;-69
2023/07/22 01:25:04;;;;;;;6.03;3.95;;;;;;;12.78;100.00;95858.75;1023341;28;20034;-71
2023/07/22 01:25:35;;;;;;;6.82;4.30;;;;;;;12.76;100.00;95860.84;1027043;28;20035;-71
2023/07/22 01:26:05;;;;;;;5.88;4.22;;;;;;;12.74;100.00;95855.06;1022884;29;20034;-71
2023/07/22 01:26:36;;;;;;;4.63;4.00;;;;;;;12.73;100.00;95856.13;1019261;29;20056;-71
2023/07/22 01:27:08;;;;;;;5.65;4.38;;;;;;;12.70;100.00;95846.91;1019198;29;20067;-70
2023/07/22 01:27:38;;;;;;;7.68;4.72;;;;;;;12.72;100.00;95847.44;1023772;28;20033;-70
2023/07/22 01:28:10;;;;;;;6.95;4.38;;;;;;;12.72;100.00;95854.56;1026698;28;20033;-68
2023/07/22 01:28:40;;;;;;;5.25;4.30;;;;;;;12.76;100.00;95860.84;1027156;28;20065;-70
2023/07/22 01:29:11;;;;;;;10.63;4.72;;;;;;;12.70;100.00;95846.13;1023137;28;20488;-69
2023/07/22 01:29:41;;;;;;;7.70;4.40;;;;;;;12.74;100.00;95857.69;1019381;29;20027;-69
2023/07/22 01:30:12;;;;;;;7.03;4.63;;;;;;;12.73;100.00;95862.19;1023066;29;20110;-72
2023/07/22 01:30:42;;;;;;;8.73;4.97;;;;;;;12.72;100.00;95855.34;1016551;29;20035;-72
2023/07/22 01:31:13;;;;;;;6.50;4.55;;;;;;;12.74;100.00;95862.97;1019035;29;20028;-70
2023/07/22 01:31:46;;;;;;;9.45;5.18;;;;;;;12.79;100.00;95865.56;1018940;29;20090;-72
2023/07/22 01:32:17;;;;;;;8.48;4.97;;;;;;;12.79;100.00;95860.31;1019957;28;20028;-69
2023/07/22 01:32:47;;;;;;;7.25;4.75;;;;;;;12.70;100.00;95846.13;1026782;28;20053;-70
2023/07/22 01:33:19;;;;;;;6.90;5.15;;;;;;;12.82;100.00;95859.00;1022999;29;20493;-70
2023/07/22 01:33:49;;;;;;;10.88;5.07;;;;;;;12.80;100.00;95859.25;1023157;28;20043;-71
2023/07/22 01:34:20;;;;;;;6.45;5.25;;;;;;;12.83;100.00;95861.34;1022979;28;20031;-69
2023/07/22 01:34:50;;;;;;;12.63;5.50;;;;;;;12.74;100.00;95847.16;1023015;29;20527;-70
2023/07/22 01:35:21;;;;;;;12.98;6.07;;;;;;;12.80;100.00;95861.88;1015081;29;20032;-69
2023/07/22 01:35:51;;;;;;;9.52;5.68;;;;;;;12.82;100.00;95867.66;1011326;29;20759;-70
2023/07/22 01:36:22;;;;;;;8.13;5.90;;;;;;;12.82;100.00;95856.34;1013151;29;20097;-69
2023/07/22 01:36:53;;;;;;;11.63;6.22;;;;;;;12.81;100.00;95863.47;1015311;29;20035;-71
2023/07/22 01:37:25;;;;;;;9.50;5.97;;;;;;;12.80;100.00;95856.59;1017459;29;20024;-68
2023/07/22 01:37:55;;;;;;;9.25;6.40;;;;;;;12.85;100.00;95864.50;1018187;29;20273;-69
2023/07/22 01:38:25;;;;;;;9.95;5.97;;;;;;;12.85;100.00;95869.75;1014911;29;20020;-71
2023/07/22 01:38:56;;;;;;;12.95;6.88;;;;;;;12.76;100.00;95849.53;1015330;29;20036;-70
2023/07/22 01:39:27;;;;;;;10.77;6.13;;;;;;;12.84;100.00;95867.38;1022924;29;20031;-71
2023/07/22 01:39:57;;;;;;;9.48;6.57;;;;;;;12.83;100.00;95861.34;1030633;28;20058;-70
2023/07/22 01:40:28;;;;;;;11.32;5.97;;;;;;;12.82;100.00;95867.66;1026190;28;20043;-70
2023/07/22 01:40:58;;;;;;;10.15;5.90;;;;;;;12.79;100.00;95862.16;1029549;28;20037;-71
2023/07/22 01:41:29;;;;;;;11.45;6.00;;;;;;;12.73;100.00;95856.91;1024515;28;20566;-69
2023/07/22 01:41:59;;;;;;;13.13;6.53;;;;;;;12.77;100.00;95861.63;1022872;29;20046;-73
2023/07/22 01:42:30;;;;;;;9.93;6.25;;;;;;;12.76;100.00;95866.13;1018516;29;20505;-70
2023/07/22 01:43:00;;;;;;;9.98;6.65;;;;;;;12.77;100.00;95869.53;1014938;29;20032;-70
2023/07/22 01:43:31;;;;;;;7.55;5.95;;;;;;;12.74;100.00;95868.22;1023122;28;20035;-70
2023/07/22 01:44:01;;;;;;;9.45;6.40;;;;;;;12.74;100.00;95857.69;1026866;28;20035;-72
2023/07/22 01:44:32;;;;;;;11.32;7.03;;;;;;;12.73;100.00;95867.44;1022987;28;20031;-69
2023/07/22 01:45:02;;;;;;;12.68;6.07;;;;;;;12.73;100.00;95861.41;1026333;28;20029;-73
2023/07/22 01:45:33;;;;;;;13.48;6.38;;;;;;;12.70;100.00;95857.47;1031029;28;20026;-70
2023/07/22 01:46:03;;;;;;;9.73;6.50;;;;;;;12.64;100.00;95852.50;1016371;29;20112;-70
2023/07/22 01:46:34;;;;;;;10.57;7.03;;;;;;;12.64;100.00;95855.13;1018841;29;20032;-71
2023/07/22 01:47:04;;;;;;;9.05;5.85;;;;;;;12.70;100.00;95861.94;1019008;29;20027;-71
2023/07/22 01:47:35;;;;;;;9.15;6.75;;;;;;;12.66;100.00;95868.81;1020455;28;20059;-68
2023/07/22 01:48:06;;;;;;;12.23;6.60;;;;;;;12.67;100.00;95865.13;1022855;29;20394;-72
2023/07/22 01:48:36;;;;;;;10.50;6.20;;;;;;;12.67;100.00;95868.53;1023070;28;20038;-71
2023/07/22 01:49:12;;;;;;;10.20;6.20;;;;;;;12.69;100.00;95868.28;1022897;29;20165;-70
2023/07/22 01:49:43;;;;;;;10.88;6.32;;;;;;;12.63;100.00;95862.25;1024519;28;20031;-72
2023/07/22 01:50:14;;;;;;;12.65;6.88;;;;;;;12.72;100.00;95870.38;1030922;28;20066;-70
2023/07/22 01:50:44;;;;;;;9.30;5.97;;;;;;;12.68;100.00;95866.72;1030088;28;20522;-70
2023/07/22 01:51:15;;;;;;;8.00;5.45;;;;;;;12.72;100.00;95880.91;1026844;28;20081;-70
2023/07/22 01:51:45;;;;;;;12.13;5.82;;;;;;;12.67;100.00;95873.00;1022811;28;20409;-69
2023/07/22 01:52:16;;;;;;;11.30;5.88;;;;;;;12.62;100.00;95863.31;1022917;29;20034;-71
2023/07/22 01:52:46;;;;;;;8.23;5.70;;;;;;;12.70;100.00;95870.63;1022788;28;20042;-70
2023/07/22 01:53:17;;;;;;;6.97;5.72;;;;;;;12.73;100.00;95872.72;1022457;28;20482;-70
2023/07/22 01:53:47;;;;;;;11.82;5.75;;;;;;;12.67;100.00;95867.75;1022908;29;20040;-71
2023/07/22 01:54:18;;;;;;;9.07;5.70;;;;;;;12.69;100.00;95873.53;1019152;29;20023;-73
2023/07/22 01:54:48;;;;;;;14.07;5.80;;;;;;;12.64;100.00;95863.84;1017560;29;20058;-69
2023/07/22 01:55:19;;;;;;;7.95;5.05;;;;;;;12.73;100.00;95874.56;1014900;29;20042;-71
2023/07/22 01:55:49;;;;;;;8.05;5.75;;;;;;;12.73;100.00;95874.56;1019091;29;20035;-71
2023/07/22 01:56:20;;;;;;;6.63;5.28;;;;;;;12.72;100.00;95881.69;1022995;28;20038;-70
2023/07/22 01:56:50;;;;;;;7.57;5.65;;;;;;;12.72;100.00;95880.91;1018956;29;20741;-69
2023/07/22 01:57:21;;;;;;;7.50;5.03;;;;;;;12.71;100.00;95876.69;1022803;28;20035;-71
2023/07/22 01:57:51;;;;;;;10.25;5.15;;;;;;;12.70;100.00;95877.75;1022951;29;20113;-71
2023/07/22 01:58:22;;;;;;;9.18;5.20;;;;;;;12.68;100.00;95871.97;1021743;28;20169;-69
2023/07/22 01:58:52;;;;;;;7.97;5.10;;;;;;;12.66;100.00;95871.44;1019144;29;20496;-69
2023/07/22 01:59:23;;;;;;;9.40;5.10;;;;;;;12.68;100.00;95871.97;1021577;28;20051;-69
2023/07/22 01:59:53;;;;;;;9.45;5.32;;;;;;;12.68;100.00;95871.97;1023145;28;20027;-70
2023/07/22 02:00:24;;;;;;;8.50;5.03;;;;;;;12.67;100.00;95878.28;1030368;28;20030;-69
2023/07/22 02:00:54;;;;;;;8.73;4.97;;;;;;;12.60;100.00;95869.91;1030972;28;20070;-70
2023/07/22 02:01:25;;;;;;;9.98;5.20;;;;;;;12.65;100.00;95877.78;1026926;28;20027;-70
2023/07/22 02:01:55;;;;;;;12.07;4.85;;;;;;;12.66;100.00;95874.88;1026812;28;20112;-70
2023/07/22 02:02:26;;;;;;;9.52;5.88;;;;;;;12.64;100.00;95877.00;1027041;28;20031;-71
2023/07/22 02:02:56;;;;;;;11.02;5.70;;;;;;;12.62;100.00;95875.69;1027095;28;20439;-69
2023/07/22 02:03:27;;;;;;;10.63;5.25;;;;;;;12.62;100.00;95870.44;1026620;28;20801;-71
2023/07/22 02:03:57;;;;;;;7.00;5.30;;;;;;;12.66;100.00;95868.81;1022863;29;20035;-72
2023/07/22 02:04:28;;;;;;;8.38;5.32;;;;;;;12.64;100.00;95868.28;1018799;29;20071;-70
2023/07/22 02:04:58;;;;;;;11.35;6.18;;;;;;;12.61;100.00;95868.81;1019028;29;20064;-71
2023/07/22 02:05:30;;;;;;;8.95;6.20;;;;;;;12.66;100.00;95872.22;1018650;28;20080;-72
2023/07/22 02:06:04;;;;;;;12.55;6.38;;;;;;;12.61;100.00;95868.81;1026926;28;20035;-71
2023/07/22 02:06:35;;;;;;;10.73;6.18;;;;;;;12.64;100.00;95877.00;1022857;28;20154;-71
2023/07/22 02:07:05;;;;;;;8.40;6.00;;;;;;;12.62;100.00;95880.94;1022853;28;20855;-72
2023/07/22 02:07:36;;;;;;;11.00;6.38;;;;;;;12.64;100.00;95868.28;1018742;29;20079;-70
2023/07/22 02:08:06;;;;;;;9.38;6.15;;;;;;;12.62;100.00;95876.47;1015527;28;20036;-70
2023/07/22 02:08:37;;;;;;;8.48;6.38;;;;;;;12.55;100.00;95867.31;1022891;29;20107;-70
2023/07/22 02:09:08;;;;;;;9.10;6.18;;;;;;;12.61;100.00;95877.53;1022772;28;20027;-71
2023/07/22 02:09:38;;;;;;;10.93;7.28;;;;;;;12.62;100.00;95876.47;1023023;28;20074;-70
2023/07/22 02:10:09;;;;;;;15.45;7.40;;;;;;;12.42;100.00;95851.03;1026635;28;20519;-69
2023/07/22 02:10:40;;;;;;;9.10;6.97;;;;;;;12.62;100.00;95878.31;1026285;28;20026;-69
2023/07/22 02:11:11;;;;;;;13.70;7.43;;;;;;;12.60;100.00;95875.94;1022746;29;20568;-69
2023/07/22 02:11:42;;;;;;;9.13;6.82;;;;;;;12.59;100.00;95881.50;1018887;29;20102;-70
2023/07/22 02:12:13;;;;;;;12.50;8.02;;;;;;;12.59;100.00;95876.22;1015017;29;20099;-69
2023/07/22 02:12:43;;;;;;;15.15;7.22;;;;;;;12.58;100.00;95877.28;1014904;29;20460;-70
2023/07/22 02:13:14;;;;;;;11.88;7.05;;;;;;;12.61;100.00;95879.34;1018435;28;20521;-70
2023/07/22 02:13:44;;;;;;;14.85;7.13;;;;;;;12.59;100.00;95881.50;1026488;28;20567;-70
2023/07/22 02:14:15;;;;;;;12.75;7.93;;;;;;;12.61;100.00;95879.34;1026706;28;20035;-71
2023/07/22 02:14:45;;;;;;;13.15;8.20;;;;;;;12.59;100.00;95877.00;1029580;28;20026;-72
2023/07/22 02:15:16;;;;;;;13.80;8.70;;;;;;;12.58;100.00;95880.72;1026843;28;20031;-72
2023/07/22 02:15:47;;;;;;;11.73;8.02;;;;;;;12.56;100.00;95877.56;1022642;28;20027;-71
2023/07/22 02:16:18;;;;;;;11.32;8.05;;;;;;;12.58;100.00;95874.66;1022695;28;20059;-69
2023/07/22 02:16:49;;;;;;;11.80;8.18;;;;;;;12.56;100.00;95874.91;1023151;28;20019;-70
2023/07/22 02:17:20;;;;;;;16.45;7.95;;;;;;;12.50;100.00;95868.88;1022979;28;20031;-70
2023/07/22 02:17:50;;;;;;;15.23;8.82;;;;;;;12.57;100.00;95880.97;1022811;28;20195;-71
2023/07/22 02:18:21;;;;;;;13.98;8.70;;;;;;;12.58;100.00;95877.28;1026647;28;20035;-71
2023/07/22 02:18:52;;;;;;;12.98;8.95;;;;;;;12.59;100.00;95881.50;1021486;28;20039;-71
2023/07/22 02:19:23;;;;;;;14.80;8.82;;;;;;;12.56;100.00;95884.66;1023071;28;20074;-71
2023/07/22 02:19:54;;;;;;;14.38;8.70;;;;;;;12.57;100.00;95883.59;1026613;28;20042;-71
2023/07/22 02:20:28;;;;;;;14.68;8.52;;;;;;;12.53;100.00;95875.47;1022439;28;20031;-69
2023/07/22 02:20:59;;;;;;;12.60;8.90;;;;;;;12.58;100.00;95882.56;1027375;28;20102;-72
2023/07/22 02:21:29;;;;;;;16.58;9.18;;;;;;;12.55;100.00;95880.47;1031218;28;20147;-69
2023/07/22 02:22:00;;;;;;;15.52;9.32;;;;;;;12.56;100.00;95882.03;1027624;28;20102;-72
2023/07/22 02:22:30;;;;;;;13.38;8.60;;;;;;;12.54;100.00;95884.13;1030477;28;20065;-71
2023/07/22 02:23:01;;;;;;;14.82;9.57;;;;;;;12.56;100.00;95888.06;1026354;28;20912;-71